Time;durP1;ratioP1;P1;durP2;ratioP2;P2;SDS_P1;SDS_P2;PMS_P1;PMS_P2;Temp;Humidity;BMP_temperature;BMP_pressure;BME280_temperature;BME280_humidity;BME280_pressure;Samples;Min_cycle;Max_cycle;Signal;HPM_P1;HPM_P2
2021/12/13 00:02:38;;;;;;;39.10;31.13;;;11.40;92.90;;;;;;5026347;28;20087;-70
2021/12/13 00:05:11;;;;;;;38.13;30.23;;;11.40;92.90;;;;;;5029901;28;20440;-69
2021/12/13 00:07:40;;;;;;;37.60;29.73;;;11.30;92.90;;;;;;5031116;28;20425;-69
2021/12/13 00:10:17;;;;;;;43.33;31.73;;;11.40;92.90;;;;;;5034114;28;20030;-69
2021/12/13 00:12:48;;;;;;;38.25;29.85;;;11.30;92.90;;;;;;5016601;28;20389;-69
2021/12/13 00:15:26;;;;;;;37.97;29.80;;;11.40;92.90;;;;;;5020482;28;20424;-69
2021/12/13 00:17:53;;;;;;;35.30;29.20;;;11.30;92.90;;;;;;5030289;28;20590;-69
2021/12/13 00:20:40;;;;;;;35.00;27.42;;;11.30;92.90;;;;;;5030201;28;20030;-70
2021/12/13 00:23:19;;;;;;;37.85;28.45;;;11.30;92.90;;;;;;5029884;28;20047;-70
2021/12/13 00:25:51;;;;;;;35.85;28.33;;;11.30;92.90;;;;;;5030255;28;20553;-70
2021/12/13 00:28:23;;;;;;;33.17;27.45;;;11.30;92.90;;;;;;5028186;28;20044;-69
2021/12/13 00:31:07;;;;;;;33.15;27.00;;;11.30;92.90;;;;;;5028245;28;20106;-70
2021/12/13 00:33:52;;;;;;;39.47;27.67;;;11.30;92.90;;;;;;5029226;28;20344;-70
2021/12/13 00:36:44;;;;;;;39.88;29.48;;;11.30;92.80;;;;;;5029731;28;20544;-69
2021/12/13 00:39:48;;;;;;;36.28;28.88;;;11.30;92.80;;;;;;5029693;28;20036;-69
2021/12/13 00:42:15;;;;;;;38.88;29.35;;;11.30;92.70;;;;;;5029506;28;20491;-69
2021/12/13 00:44:46;;;;;;;35.03;26.75;;;11.30;92.80;;;;;;5028788;28;20563;-69
2021/12/13 00:47:30;;;;;;;34.85;26.38;;;11.30;92.80;;;;;;5026776;28;20116;-69
2021/12/13 00:50:06;;;;;;;34.85;26.10;;;11.30;92.80;;;;;;5015497;28;20026;-69
2021/12/13 00:52:33;;;;;;;36.25;25.52;;;11.30;92.80;;;;;;5029637;28;20033;-69
2021/12/13 00:55:00;;;;;;;30.77;24.42;;;11.30;92.80;;;;;;5028551;28;20013;-69
2021/12/13 00:57:38;;;;;;;32.15;24.85;;;11.30;92.80;;;;;;5029598;28;20107;-69
2021/12/13 01:00:25;;;;;;;39.75;26.42;;;11.20;92.70;;;;;;5029159;28;20365;-68
2021/12/13 01:03:15;;;;;;;38.17;25.35;;;11.30;92.70;;;;;;5019136;28;20465;-68
2021/12/13 01:06:01;;;;;;;30.98;24.75;;;11.30;92.60;;;;;;5023916;28;20064;-68
2021/12/13 01:09:01;;;;;;;33.42;23.10;;;11.20;92.60;;;;;;5029427;28;20041;-68
2021/12/13 01:12:01;;;;;;;33.65;24.10;;;11.30;92.60;;;;;;5029494;28;20366;-68
2021/12/13 01:14:33;;;;;;;37.10;25.00;;;11.30;92.50;;;;;;5027205;28;20108;-68
2021/12/13 01:17:14;;;;;;;32.40;24.70;;;11.30;92.50;;;;;;5045683;28;20115;-68
2021/12/13 01:19:49;;;;;;;34.67;24.42;;;11.30;92.50;;;;;;5023870;28;20033;-68
2021/12/13 01:22:43;;;;;;;39.58;26.23;;;11.30;92.50;;;;;;5024389;28;20029;-68
2021/12/13 01:28:18;;;;;;;30.95;23.73;;;11.20;92.40;;;;;;5028119;28;20040;-69
2021/12/13 01:31:08;;;;;;;28.63;23.10;;;11.30;92.40;;;;;;5027392;28;20036;-68
2021/12/13 01:33:35;;;;;;;33.25;24.42;;;11.30;92.40;;;;;;5029473;28;20042;-68
2021/12/13 01:36:06;;;;;;;35.67;24.13;;;11.30;92.40;;;;;;5025966;28;20041;-68
2021/12/13 01:38:47;;;;;;;40.22;25.92;;;11.30;92.40;;;;;;5017916;28;20115;-67
2021/12/13 01:41:23;;;;;;;34.92;25.45;;;11.30;92.30;;;;;;5014542;28;20033;-69
2021/12/13 01:43:58;;;;;;;35.83;24.60;;;11.20;92.30;;;;;;5025944;28;20026;-69
2021/12/13 01:46:25;;;;;;;31.25;24.48;;;11.20;92.30;;;;;;5017720;28;20103;-69
2021/12/13 01:48:53;;;;;;;42.17;28.55;;;11.20;92.40;;;;;;5023859;28;20068;-69
2021/12/13 01:51:26;;;;;;;37.08;26.35;;;11.20;92.40;;;;;;5027096;28;20029;-69
2021/12/13 01:54:02;;;;;;;35.80;26.02;;;11.20;92.30;;;;;;5027439;28;20462;-68
2021/12/13 01:56:57;;;;;;;31.67;26.55;;;11.20;92.30;;;;;;5028378;28;20416;-68
2021/12/13 02:02:21;;;;;;;35.38;26.08;;;11.20;92.30;;;;;;5027125;28;20124;-68
2021/12/13 02:05:04;;;;;;;36.65;28.77;;;11.20;92.30;;;;;;5019494;28;20390;-67
2021/12/13 02:07:42;;;;;;;42.55;28.85;;;11.20;92.30;;;;;;5027523;28;20025;-68
2021/12/13 02:10:20;;;;;;;39.15;27.05;;;11.20;92.30;;;;;;5027707;28;20021;-69
2021/12/13 02:12:54;;;;;;;38.90;28.60;;;11.20;92.30;;;;;;5029929;28;20476;-69
2021/12/13 02:18:11;;;;;;;39.47;29.23;;;11.20;92.20;;;;;;5029080;28;20511;-68
2021/12/13 02:20:41;;;;;;;38.88;28.70;;;11.20;92.20;;;;;;5030227;28;20477;-68
2021/12/13 02:23:07;;;;;;;37.80;27.90;;;11.20;92.20;;;;;;5030615;28;20025;-68
2021/12/13 02:25:38;;;;;;;32.33;27.08;;;11.20;92.30;;;;;;5010809;28;20030;-68
2021/12/13 02:28:30;;;;;;;38.92;28.58;;;11.20;92.30;;;;;;5030537;28;20461;-68
2021/12/13 02:31:01;;;;;;;40.15;30.67;;;11.30;92.30;;;;;;5030704;28;20030;-68
2021/12/13 02:33:32;;;;;;;42.03;31.15;;;11.30;92.20;;;;;;5031018;28;20052;-68
2021/12/13 02:36:04;;;;;;;39.70;31.23;;;11.30;92.20;;;;;;5032182;28;20026;-68
2021/12/13 02:38:30;;;;;;;46.90;33.85;;;11.30;92.20;;;;;;5033022;28;20484;-68
2021/12/13 02:40:57;;;;;;;44.15;32.95;;;11.30;92.40;;;;;;5031718;28;20116;-68
2021/12/13 02:43:28;;;;;;;46.47;31.92;;;11.30;92.20;;;;;;5031902;28;20032;-68
2021/12/13 02:45:56;;;;;;;49.63;35.97;;;11.30;92.20;;;;;;5029530;28;20033;-68
2021/12/13 02:48:37;;;;;;;39.65;30.90;;;11.30;92.20;;;;;;5033251;28;20443;-68
2021/12/13 02:51:41;;;;;;;45.90;35.25;;;11.30;92.20;;;;;;5019975;28;20109;-68
2021/12/13 02:54:09;;;;;;;50.25;37.65;;;11.20;92.10;;;;;;5027524;28;20049;-68
2021/12/13 02:56:50;;;;;;;46.60;35.28;;;11.30;92.10;;;;;;5030566;28;20075;-68
2021/12/13 02:59:16;;;;;;;49.33;37.88;;;11.30;92.10;;;;;;5030262;28;20129;-68
2021/12/13 03:01:51;;;;;;;49.38;37.78;;;11.20;92.10;;;;;;5030742;28;20029;-68
2021/12/13 03:04:20;;;;;;;45.10;36.45;;;11.20;92.10;;;;;;5031552;28;20034;-68
2021/12/13 03:06:56;;;;;;;43.22;33.70;;;11.20;92.10;;;;;;5031766;28;20488;-69
2021/12/13 03:09:28;;;;;;;42.90;34.72;;;11.20;92.10;;;;;;5031332;28;20578;-69
2021/12/13 03:11:55;;;;;;;39.63;32.17;;;11.20;92.10;;;;;;5031357;28;20022;-69
2021/12/13 03:14:29;;;;;;;41.10;33.53;;;11.20;92.10;;;;;;5030835;28;20060;-68
2021/12/13 03:17:08;;;;;;;42.72;33.75;;;11.20;92.00;;;;;;5017768;28;20049;-68
2021/12/13 03:19:40;;;;;;;38.30;31.95;;;11.20;92.30;;;;;;5030578;28;20039;-68
2021/12/13 03:22:38;;;;;;;41.40;31.93;;;11.20;92.00;;;;;;5031492;28;20100;-68
2021/12/13 03:25:28;;;;;;;44.13;32.25;;;11.20;92.00;;;;;;5034954;28;20288;-68
2021/12/13 03:28:18;;;;;;;36.15;29.42;;;11.20;91.90;;;;;;5034955;28;20352;-68
2021/12/13 03:31:09;;;;;;;33.22;28.90;;;11.20;91.90;;;;;;5030807;28;20025;-68
2021/12/13 03:33:51;;;;;;;39.65;30.70;;;11.20;92.00;;;;;;5030476;28;20030;-68
2021/12/13 03:36:27;;;;;;;35.17;29.17;;;11.20;92.10;;;;;;5025941;28;20131;-68
2021/12/13 03:38:55;;;;;;;32.67;27.60;;;11.20;91.80;;;;;;5023449;28;20119;-68
2021/12/13 03:41:24;;;;;;;33.95;28.30;;;11.20;91.80;;;;;;5030133;28;20499;-68
2021/12/13 03:44:04;;;;;;;37.20;27.65;;;11.10;91.80;;;;;;5030979;28;20387;-67
2021/12/13 03:46:32;;;;;;;34.00;26.02;;;11.10;91.80;;;;;;5019510;28;20017;-67
2021/12/13 03:49:00;;;;;;;31.83;26.02;;;11.10;91.70;;;;;;5030747;28;20184;-68
2021/12/13 03:51:33;;;;;;;29.73;24.15;;;11.10;91.70;;;;;;5029615;28;20072;-67
2021/12/13 03:54:01;;;;;;;28.35;23.92;;;11.10;91.80;;;;;;5030258;28;20021;-68
2021/12/13 03:56:33;;;;;;;29.58;25.75;;;11.10;91.80;;;;;;5030887;28;20036;-67
2021/12/13 03:59:08;;;;;;;28.23;24.52;;;11.10;91.80;;;;;;5028595;28;20109;-68
2021/12/13 04:01:57;;;;;;;35.90;23.27;;;11.10;91.80;;;;;;5030479;28;20144;-68
2021/12/13 04:04:35;;;;;;;26.27;22.10;;;11.10;91.70;;;;;;5031155;28;20373;-69
2021/12/13 04:07:25;;;;;;;27.70;22.85;;;11.10;91.70;;;;;;5030978;28;20017;-68
2021/12/13 04:09:55;;;;;;;29.08;23.67;;;11.10;91.60;;;;;;5024771;28;20042;-70
2021/12/13 04:12:28;;;;;;;26.55;21.85;;;11.10;91.60;;;;;;5029917;28;20104;-70
2021/12/13 04:15:01;;;;;;;27.33;21.83;;;11.10;91.60;;;;;;5030559;28;20053;-69
2021/12/13 04:17:42;;;;;;;24.92;20.40;;;11.10;91.60;;;;;;5030147;28;20116;-70
2021/12/13 04:20:15;;;;;;;25.40;21.23;;;11.10;91.60;;;;;;5023482;28;20480;-69
2021/12/13 04:22:48;;;;;;;25.98;20.65;;;11.10;91.60;;;;;;5030507;28;20393;-69
2021/12/13 04:25:21;;;;;;;24.90;20.52;;;11.10;91.50;;;;;;5029994;28;20025;-70
2021/12/13 04:27:58;;;;;;;22.10;19.02;;;11.10;91.50;;;;;;5027902;28;20033;-69
2021/12/13 04:30:52;;;;;;;26.48;21.83;;;11.10;91.50;;;;;;5029995;28;20053;-69
2021/12/13 04:33:31;;;;;;;27.83;21.70;;;11.10;91.40;;;;;;5023295;28;20056;-70
2021/12/13 04:36:01;;;;;;;27.48;20.40;;;11.10;91.30;;;;;;5029114;28;20040;-67
2021/12/13 04:38:40;;;;;;;27.52;21.52;;;11.10;91.30;;;;;;5022556;28;20500;-67
2021/12/13 04:41:06;;;;;;;24.77;19.52;;;11.00;91.30;;;;;;5026280;28;20026;-67
2021/12/13 04:43:36;;;;;;;26.50;20.38;;;11.00;91.30;;;;;;5026212;28;20041;-67
2021/12/13 04:46:05;;;;;;;25.63;20.52;;;11.00;91.30;;;;;;5028170;28;20033;-67
2021/12/13 04:48:34;;;;;;;24.90;19.85;;;11.00;91.20;;;;;;5032212;28;20040;-67
2021/12/13 04:51:09;;;;;;;27.52;21.13;;;11.00;91.20;;;;;;5032886;28;20043;-67
2021/12/13 04:53:38;;;;;;;29.27;20.48;;;11.00;91.30;;;;;;5026118;28;20087;-67
2021/12/13 04:56:10;;;;;;;24.77;19.70;;;11.00;91.20;;;;;;5033200;28;20075;-67
2021/12/13 04:58:39;;;;;;;28.45;19.67;;;11.00;91.30;;;;;;5027157;28;20036;-68
2021/12/13 05:01:08;;;;;;;30.27;21.23;;;11.00;91.20;;;;;;5032770;28;20056;-69
2021/12/13 05:03:44;;;;;;;27.85;21.98;;;11.00;91.30;;;;;;5035191;28;20028;-69
2021/12/13 05:06:15;;;;;;;29.83;21.83;;;11.00;91.30;;;;;;5034176;28;20030;-69
2021/12/13 05:08:44;;;;;;;29.17;21.38;;;11.00;91.10;;;;;;5034447;28;20025;-70
2021/12/13 05:11:11;;;;;;;33.47;23.05;;;11.00;91.20;;;;;;5027244;28;20128;-70
2021/12/13 05:13:47;;;;;;;36.05;22.05;;;11.00;91.10;;;;;;5028565;28;20040;-69
2021/12/13 05:16:15;;;;;;;27.10;19.52;;;11.00;91.10;;;;;;5027298;28;20045;-70
2021/12/13 05:18:49;;;;;;;26.83;20.50;;;11.00;91.10;;;;;;5026482;28;20057;-69
2021/12/13 05:21:34;;;;;;;29.13;20.88;;;11.00;91.10;;;;;;5028250;28;20017;-69
2021/12/13 05:24:03;;;;;;;30.88;21.75;;;11.00;91.10;;;;;;5028443;28;20029;-67
2021/12/13 05:26:59;;;;;;;25.90;21.08;;;11.00;91.10;;;;;;5022664;28;20362;-68
2021/12/13 05:29:36;;;;;;;28.95;21.23;;;10.90;91.10;;;;;;5027687;28;20038;-69
2021/12/13 05:32:25;;;;;;;27.42;20.17;;;10.90;91.10;;;;;;5027945;28;20126;-67
2021/12/13 05:34:56;;;;;;;28.45;19.75;;;10.90;91.10;;;;;;5027996;28;20024;-67
2021/12/13 05:37:23;;;;;;;30.75;21.65;;;10.90;91.10;;;;;;5030932;28;20468;-67
2021/12/13 05:40:03;;;;;;;26.55;19.92;;;10.90;91.10;;;;;;5029022;28;20025;-67
2021/12/13 05:42:42;;;;;;;35.53;23.40;;;11.00;91.00;;;;;;5027604;28;20084;-67
2021/12/13 05:45:16;;;;;;;31.27;21.63;;;11.00;90.90;;;;;;5029166;28;20546;-68
2021/12/13 05:48:06;;;;;;;32.75;23.15;;;10.90;90.90;;;;;;5028471;28;20040;-67
2021/12/13 05:50:44;;;;;;;31.40;21.65;;;10.90;90.90;;;;;;5025192;28;20030;-67
2021/12/13 05:53:15;;;;;;;31.40;21.48;;;10.90;90.90;;;;;;5028461;28;20022;-67
2021/12/13 05:55:47;;;;;;;29.85;21.00;;;10.90;90.90;;;;;;5028673;28;20087;-67
2021/12/13 05:58:26;;;;;;;30.45;22.98;;;10.90;91.00;;;;;;5028368;28;20029;-67
2021/12/13 06:00:53;;;;;;;36.78;23.05;;;10.90;90.90;;;;;;5028748;28;20036;-67
2021/12/13 06:03:34;;;;;;;32.63;22.70;;;10.90;90.90;;;;;;5028131;28;20563;-67
2021/12/13 06:06:10;;;;;;;34.38;23.75;;;10.90;90.90;;;;;;5020439;28;20029;-67
2021/12/13 06:08:42;;;;;;;33.58;23.83;;;10.90;90.80;;;;;;5025173;28;20026;-67
2021/12/13 06:11:11;;;;;;;28.23;21.23;;;10.90;90.80;;;;;;5028889;28;20472;-67
2021/12/13 06:13:43;;;;;;;35.42;23.75;;;10.90;90.80;;;;;;5028945;28;20112;-67
2021/12/13 06:16:25;;;;;;;30.63;22.73;;;10.90;90.80;;;;;;5028027;28;20324;-68
2021/12/13 06:18:57;;;;;;;;;;;10.80;90.80;;;;;;5028475;28;20022;-68
2021/12/13 06:22:12;;;;;;;31.75;21.92;;;10.80;90.80;;;;;;5028265;28;20008;-68
2021/12/13 06:25:00;;;;;;;30.20;21.35;;;10.80;90.80;;;;;;5028252;28;20412;-67
2021/12/13 06:27:59;;;;;;;28.70;20.38;;;10.80;90.90;;;;;;5017442;28;20080;-68
2021/12/13 06:30:33;;;;;;;28.58;20.27;;;10.80;90.90;;;;;;5013195;28;20049;-67
2021/12/13 06:32:58;;;;;;;28.30;20.45;;;10.80;90.90;;;;;;5028328;28;20116;-68
2021/12/13 06:35:47;;;;;;;26.55;19.48;;;10.80;90.90;;;;;;5026831;28;20510;-68
2021/12/13 06:38:19;;;;;;;28.85;20.27;;;10.80;90.80;;;;;;5023512;28;20030;-68
2021/12/13 06:41:07;;;;;;;28.50;21.40;;;10.90;90.90;;;;;;5028770;28;20555;-67
2021/12/13 06:43:54;;;;;;;29.80;20.55;;;10.90;90.90;;;;;;5019981;28;20033;-67
2021/12/13 06:46:22;;;;;;;26.77;19.42;;;10.80;90.80;;;;;;5028135;28;20489;-67
2021/12/13 06:48:58;;;;;;;28.48;20.13;;;10.80;90.90;;;;;;5027329;28;20065;-67
2021/12/13 06:51:45;;;;;;;25.25;18.23;;;10.80;90.80;;;;;;5028220;28;20022;-67
2021/12/13 06:54:16;;;;;;;26.25;18.52;;;10.80;90.70;;;;;;5029568;28;20036;-67
2021/12/13 06:56:45;;;;;;;29.00;20.17;;;10.80;90.70;;;;;;5027893;28;20021;-67
2021/12/13 06:59:18;;;;;;;29.42;19.67;;;10.80;90.70;;;;;;5027325;28;20041;-67
2021/12/13 07:02:00;;;;;;;31.85;19.63;;;10.80;90.70;;;;;;5029208;28;20025;-68
2021/12/13 07:04:25;;;;;;;27.80;19.20;;;10.80;90.70;;;;;;5028670;28;20496;-67
2021/12/13 07:06:51;;;;;;;25.52;18.65;;;10.80;90.70;;;;;;5027806;28;20081;-67
2021/12/13 07:09:22;;;;;;;24.88;17.88;;;10.80;90.70;;;;;;5027559;28;20457;-67
2021/12/13 07:11:57;;;;;;;29.45;20.30;;;10.80;90.70;;;;;;5028170;28;20033;-67
2021/12/13 07:14:37;;;;;;;28.75;19.27;;;10.80;90.60;;;;;;5025099;28;20417;-67
2021/12/13 07:17:17;;;;;;;29.00;19.60;;;10.80;90.70;;;;;;5020547;28;20049;-67
2021/12/13 07:19:49;;;;;;;26.52;18.52;;;10.80;90.60;;;;;;5030344;28;20526;-68
2021/12/13 07:22:41;;;;;;;;;;;10.80;90.60;;;;;;5035110;28;20017;-67
2021/12/13 07:25:11;;;;;;;24.33;17.25;;;10.80;90.60;;;;;;5031091;28;19916;-67
2021/12/13 07:27:47;;;;;;;30.27;20.63;;;10.80;90.50;;;;;;5030448;28;20502;-67
2021/12/13 07:30:33;;;;;;;28.13;19.95;;;10.80;90.80;;;;;;5033879;28;20366;-67
2021/12/13 07:33:09;;;;;;;30.02;21.33;;;10.80;90.50;;;;;;5030247;28;20034;-67
2021/12/13 07:35:47;;;;;;;28.52;19.48;;;10.70;90.50;;;;;;5030024;28;20083;-67
2021/12/13 07:38:19;;;;;;;30.05;20.33;;;10.70;90.50;;;;;;5030140;28;20112;-67
2021/12/13 07:40:55;;;;;;;25.57;18.23;;;10.70;90.50;;;;;;5030905;28;20538;-67
2021/12/13 07:43:29;;;;;;;26.30;18.42;;;10.70;90.50;;;;;;5030983;28;20018;-67
2021/12/13 07:46:11;;;;;;;28.25;18.58;;;10.70;90.50;;;;;;5030309;28;20041;-67
2021/12/13 07:48:40;;;;;;;27.05;18.48;;;10.80;90.60;;;;;;5030817;28;20033;-67
2021/12/13 07:51:30;;;;;;;26.02;18.52;;;10.70;90.50;;;;;;5029698;28;20025;-67
2021/12/13 07:53:59;;;;;;;26.88;18.63;;;10.70;90.50;;;;;;5030502;28;20029;-68
2021/12/13 07:56:39;;;;;;;28.23;19.60;;;10.70;90.50;;;;;;5030445;28;20159;-67
2021/12/13 07:59:08;;;;;;;26.63;18.75;;;10.70;90.50;;;;;;5030063;28;20164;-67
2021/12/13 08:01:47;;;;;;;27.38;19.08;;;10.70;90.50;;;;;;5029835;28;20072;-68
2021/12/13 08:04:18;;;;;;;27.98;18.58;;;10.70;90.40;;;;;;5041929;28;20041;-68
2021/12/13 08:06:50;;;;;;;29.33;19.83;;;10.70;90.40;;;;;;5045020;28;20088;-67
2021/12/13 08:09:21;;;;;;;28.17;17.73;;;10.60;90.40;;;;;;5029941;28;20503;-68
2021/12/13 08:11:55;;;;;;;25.73;18.38;;;10.60;90.40;;;;;;5030351;28;20045;-68
2021/12/13 08:14:31;;;;;;;25.02;16.75;;;10.70;90.50;;;;;;5030363;28;20112;-67
2021/12/13 08:17:10;;;;;;;25.80;17.70;;;10.70;90.50;;;;;;5040304;28;20053;-68
2021/12/13 08:19:36;;;;;;;26.48;18.10;;;10.70;90.40;;;;;;5049445;28;20021;-66
2021/12/13 08:22:10;;;;;;;22.98;16.65;;;10.70;90.40;;;;;;5032143;28;20068;-66
2021/12/13 08:24:52;;;;;;;26.27;16.98;;;10.70;90.70;;;;;;5029469;28;20052;-66
2021/12/13 08:27:41;;;;;;;22.30;15.80;;;10.70;90.40;;;;;;5029714;28;20040;-65
2021/12/13 08:30:10;;;;;;;27.08;16.60;;;10.70;90.40;;;;;;5037011;28;20025;-65
2021/12/13 08:32:36;;;;;;;24.48;17.10;;;10.70;90.30;;;;;;5025724;28;20038;-66
2021/12/13 08:35:05;;;;;;;21.92;16.17;;;10.70;90.30;;;;;;5029799;28;20054;-66
2021/12/13 08:37:34;;;;;;;22.92;16.85;;;10.70;90.40;;;;;;5030639;28;20025;-66
2021/12/13 08:40:09;;;;;;;21.80;15.82;;;10.70;90.30;;;;;;5035465;28;20108;-65
2021/12/13 08:42:39;;;;;;;25.45;16.13;;;10.80;90.40;;;;;;5028052;28;20029;-65
2021/12/13 08:45:30;;;;;;;24.85;16.48;;;10.80;90.30;;;;;;5029506;28;20096;-66
2021/12/13 08:48:12;;;;;;;19.13;14.83;;;10.80;90.30;;;;;;5042798;28;20078;-67
2021/12/13 08:50:56;;;;;;;23.35;17.02;;;10.80;90.30;;;;;;5048401;28;20406;-66
2021/12/13 08:53:29;;;;;;;20.83;15.32;;;10.80;90.20;;;;;;5042002;28;20025;-66
2021/12/13 08:56:06;;;;;;;21.23;15.32;;;10.80;90.20;;;;;;5031394;28;20029;-66
2021/12/13 08:58:32;;;;;;;23.10;15.90;;;10.80;90.20;;;;;;5025819;28;20021;-66
2021/12/13 09:01:03;;;;;;;21.20;16.27;;;10.70;90.20;;;;;;5027324;28;20038;-65
2021/12/13 09:03:55;;;;;;;23.92;16.85;;;10.80;90.20;;;;;;5023220;28;20044;-66
2021/12/13 09:06:24;;;;;;;21.52;15.88;;;10.80;90.20;;;;;;5028487;28;20045;-66
2021/12/13 09:08:58;;;;;;;24.52;15.90;;;10.80;90.20;;;;;;5029338;28;20029;-66
2021/12/13 09:11:38;;;;;;;19.58;15.32;;;10.80;90.20;;;;;;5029684;28;20031;-66
2021/12/13 09:14:18;;;;;;;21.75;16.33;;;10.80;90.20;;;;;;5029451;28;20022;-66
2021/12/13 09:17:10;;;;;;;22.30;15.52;;;10.80;90.10;;;;;;5028474;28;20125;-66
2021/12/13 09:19:49;;;;;;;22.40;16.40;;;10.80;90.20;;;;;;5028793;28;20037;-68
2021/12/13 09:22:20;;;;;;;21.30;15.57;;;10.80;90.10;;;;;;5010816;28;20028;-67
2021/12/13 09:24:46;;;;;;;20.50;16.23;;;10.70;90.00;;;;;;5010156;28;20022;-68
2021/12/13 09:27:33;;;;;;;19.35;15.10;;;10.70;90.10;;;;;;5009706;28;20497;-67
2021/12/13 09:30:04;;;;;;;19.52;15.07;;;10.80;90.10;;;;;;5009125;28;20030;-68
2021/12/13 09:32:39;;;;;;;20.25;13.98;;;10.80;90.10;;;;;;5009936;28;20030;-68
2021/12/13 09:35:21;;;;;;;22.60;15.27;;;10.80;90.10;;;;;;5011690;28;20445;-67
2021/12/13 09:37:47;;;;;;;21.67;15.20;;;10.80;90.10;;;;;;5029993;28;20021;-67
2021/12/13 09:40:15;;;;;;;21.33;16.17;;;10.80;90.10;;;;;;5028630;28;20078;-68
2021/12/13 09:42:59;;;;;;;23.55;15.88;;;10.80;90.00;;;;;;5029516;28;20148;-68
2021/12/13 09:45:33;;;;;;;20.00;14.38;;;10.80;90.00;;;;;;5028841;28;20036;-68
2021/12/13 09:48:33;;;;;;;20.15;13.77;;;10.80;90.00;;;;;;5028854;28;20057;-68
2021/12/13 09:51:04;;;;;;;20.85;14.93;;;10.80;90.10;;;;;;5027806;28;20037;-68
2021/12/13 09:53:33;;;;;;;19.10;13.85;;;10.80;90.10;;;;;;5029039;28;20028;-68
2021/12/13 09:56:13;;;;;;;19.27;13.30;;;10.90;90.10;;;;;;5029246;28;20387;-68
2021/12/13 09:58:45;;;;;;;20.63;14.70;;;10.90;90.10;;;;;;5041290;28;20449;-68
2021/12/13 10:01:16;;;;;;;19.52;13.85;;;10.80;90.10;;;;;;5028613;28;20494;-68
2021/12/13 10:03:56;;;;;;;17.45;13.13;;;10.80;90.10;;;;;;5028964;28;20022;-68
2021/12/13 10:06:39;;;;;;;19.05;13.25;;;10.80;90.10;;;;;;5023828;28;20497;-68
2021/12/13 10:09:08;;;;;;;18.25;13.60;;;10.80;90.10;;;;;;5008823;28;20021;-68
2021/12/13 10:11:46;;;;;;;16.70;13.10;;;10.80;90.00;;;;;;5009045;28;20030;-68
2021/12/13 10:14:15;;;;;;;15.63;12.18;;;10.80;90.00;;;;;;5007654;28;20616;-67
2021/12/13 10:16:43;;;;;;;18.38;13.70;;;10.80;90.00;;;;;;5009046;28;20046;-68
2021/12/13 10:19:18;;;;;;;20.15;13.25;;;10.80;90.00;;;;;;5009055;28;20483;-68
2021/12/13 10:21:46;;;;;;;17.05;12.13;;;10.80;90.00;;;;;;5023352;28;20029;-68
2021/12/13 10:24:34;;;;;;;17.35;12.40;;;10.80;90.00;;;;;;5043122;28;20558;-67
2021/12/13 10:27:03;;;;;;;18.98;13.05;;;10.90;90.00;;;;;;5028797;28;20440;-68
2021/12/13 10:29:31;;;;;;;18.33;12.85;;;10.80;89.90;;;;;;5028498;28;20030;-67
2021/12/13 10:32:08;;;;;;;16.88;12.55;;;10.80;89.70;;;;;;5028364;28;20065;-68
2021/12/13 10:34:38;;;;;;;15.40;11.98;;;10.80;89.60;;;;;;5027588;28;20113;-68
2021/12/13 10:37:11;;;;;;;17.65;12.20;;;10.80;89.50;;;;;;5028370;28;20025;-68
2021/12/13 10:39:45;;;;;;;15.90;11.77;;;10.80;89.40;;;;;;5043944;28;20495;-68
2021/12/13 10:42:20;;;;;;;18.20;11.77;;;10.70;89.50;;;;;;5028570;28;20383;-68
2021/12/13 10:44:46;;;;;;;14.25;10.38;;;10.70;89.50;;;;;;5028808;28;20025;-68
2021/12/13 10:47:18;;;;;;;14.25;10.50;;;10.80;89.90;;;;;;5028873;28;20284;-68
2021/12/13 10:49:47;;;;;;;12.27;10.25;;;10.80;89.80;;;;;;5030552;28;20021;-68
2021/12/13 10:52:23;;;;;;;12.98;10.05;;;10.80;89.80;;;;;;5029749;28;20033;-68
2021/12/13 10:54:53;;;;;;;14.25;10.75;;;10.80;89.70;;;;;;5031943;28;20025;-68
2021/12/13 10:57:43;;;;;;;13.18;10.57;;;10.80;89.40;;;;;;5026267;28;20045;-67
2021/12/13 11:00:18;;;;;;;12.82;9.57;;;10.90;89.50;;;;;;5032084;28;20476;-67
2021/12/13 11:02:45;;;;;;;14.95;10.82;;;10.80;89.30;;;;;;5038322;28;20091;-68
2021/12/13 11:05:18;;;;;;;13.25;10.35;;;10.80;89.20;;;;;;5035254;28;20041;-68
2021/12/13 11:07:48;;;;;;;15.38;10.43;;;10.90;89.10;;;;;;5031979;28;20029;-68
2021/12/13 11:10:17;;;;;;;15.45;11.05;;;10.90;88.70;;;;;;5032237;28;20443;-68
2021/12/13 11:12:47;;;;;;;12.85;10.63;;;10.90;89.30;;;;;;5032289;28;20029;-68
2021/12/13 11:15:25;;;;;;;14.80;10.23;;;10.90;88.90;;;;;;5028525;28;20025;-68
2021/12/13 11:17:51;;;;;;;12.90;9.80;;;10.90;89.00;;;;;;5031843;28;20034;-68
2021/12/13 11:20:20;;;;;;;13.55;10.07;;;10.90;88.80;;;;;;5031666;28;20028;-68
2021/12/13 11:22:47;;;;;;;12.88;9.90;;;10.90;88.50;;;;;;5032004;28;20392;-68
2021/12/13 11:25:41;;;;;;;12.23;9.50;;;10.90;88.50;;;;;;5030080;28;20053;-68
2021/12/13 11:28:07;;;;;;;13.82;9.88;;;10.90;88.70;;;;;;5025239;28;20060;-67
2021/12/13 11:30:35;;;;;;;12.45;9.35;;;10.90;88.60;;;;;;5012752;28;20481;-68
2021/12/13 11:33:16;;;;;;;13.63;10.15;;;10.90;88.60;;;;;;5021752;28;20076;-67
2021/12/13 11:36:03;;;;;;;11.63;8.98;;;10.90;88.50;;;;;;5025571;28;20021;-67
2021/12/13 11:38:38;;;;;;;10.95;8.98;;;10.90;89.20;;;;;;5022598;28;20030;-67
2021/12/13 11:41:37;;;;;;;11.18;8.95;;;10.90;88.70;;;;;;5027471;28;20025;-68
2021/12/13 11:44:18;;;;;;;11.20;9.02;;;10.90;88.70;;;;;;5031633;28;20071;-67
2021/12/13 11:47:18;;;;;;;16.27;9.57;;;10.90;88.70;;;;;;5029251;28;20029;-68
2021/12/13 11:50:03;;;;;;;14.23;9.35;;;10.90;88.50;;;;;;5017353;28;20026;-67
2021/12/13 11:53:06;;;;;;;10.98;8.43;;;10.90;88.50;;;;;;5013631;28;20026;-67
2021/12/13 11:55:59;;;;;;;11.25;9.10;;;10.80;88.50;;;;;;5024204;28;20647;-67
2021/12/13 11:58:44;;;;;;;12.93;9.27;;;10.80;88.70;;;;;;5030779;28;20018;-67
2021/12/13 12:01:43;;;;;;;11.60;9.10;;;10.90;89.40;;;;;;5030134;28;20033;-67
2021/12/13 12:04:30;;;;;;;12.25;8.88;;;10.90;88.70;;;;;;5031339;28;20028;-68
2021/12/13 12:07:13;;;;;;;11.35;9.07;;;10.90;88.80;;;;;;5031384;28;20037;-67
2021/12/13 12:10:20;;;;;;;11.25;9.10;;;10.90;88.90;;;;;;5017159;23;20073;-67
2021/12/13 12:13:05;;;;;;;9.68;8.52;;;10.90;88.50;;;;;;4950210;29;20451;-67
2021/12/13 12:15:33;;;;;;;11.60;8.48;;;10.90;88.40;;;;;;4948386;29;20222;-67
2021/12/13 12:18:08;;;;;;;11.25;8.70;;;10.90;88.30;;;;;;4965310;28;20050;-67
2021/12/13 12:20:38;;;;;;;10.80;8.35;;;10.90;88.40;;;;;;4979493;28;20073;-67
2021/12/13 12:23:24;;;;;;;9.85;8.00;;;10.90;88.50;;;;;;4986329;28;20414;-67
2021/12/13 12:25:50;;;;;;;9.85;7.25;;;10.90;88.50;;;;;;4990872;28;20018;-67
2021/12/13 12:28:18;;;;;;;10.10;8.20;;;10.90;88.70;;;;;;4987246;28;20111;-67
2021/12/13 12:30:48;;;;;;;10.45;8.80;;;11.00;88.40;;;;;;4988442;28;20161;-67
2021/12/13 12:33:37;;;;;;;10.48;8.35;;;11.00;88.30;;;;;;4990682;28;20091;-67
2021/12/13 12:36:17;;;;;;;8.63;7.00;;;11.00;88.10;;;;;;5002136;28;20602;-67
2021/12/13 12:39:04;;;;;;;10.98;7.40;;;11.00;88.20;;;;;;4991514;28;20029;-67
2021/12/13 12:41:45;;;;;;;10.02;8.32;;;11.00;87.90;;;;;;4988472;28;20070;-67
2021/12/13 12:44:17;;;;;;;8.95;8.05;;;11.00;88.00;;;;;;4989598;28;20026;-67
2021/12/13 12:46:43;;;;;;;9.60;8.40;;;11.00;87.80;;;;;;4990277;28;20030;-67
2021/12/13 12:49:16;;;;;;;9.93;8.43;;;11.00;87.80;;;;;;4972397;28;20397;-67
2021/12/13 12:51:43;;;;;;;12.00;8.13;;;11.00;87.70;;;;;;4987680;28;20037;-67
2021/12/13 12:54:18;;;;;;;10.85;7.70;;;11.00;87.60;;;;;;4988900;28;20445;-67
2021/12/13 12:56:46;;;;;;;9.23;8.00;;;11.00;87.50;;;;;;4983657;28;20473;-67
2021/12/13 12:59:20;;;;;;;11.07;7.75;;;11.00;87.60;;;;;;4988127;28;20054;-67
2021/12/13 13:01:45;;;;;;;11.02;7.60;;;10.90;87.70;;;;;;4985439;28;20366;-67
2021/12/13 13:04:22;;;;;;;9.98;7.85;;;11.00;87.60;;;;;;4989916;28;20025;-67
2021/12/13 13:07:08;;;;;;;9.90;8.18;;;11.00;87.70;;;;;;4989303;28;20034;-67
2021/12/13 13:09:48;;;;;;;9.50;7.22;;;11.00;87.70;;;;;;4985468;28;20082;-67
2021/12/13 13:12:29;;;;;;;8.75;7.32;;;11.00;87.90;;;;;;4988619;28;20045;-66
2021/12/13 13:15:12;;;;;;;7.95;6.90;;;10.90;87.80;;;;;;4995566;28;20030;-66
2021/12/13 13:17:47;;;;;;;8.63;7.43;;;11.00;88.00;;;;;;4988827;28;20038;-66
2021/12/13 13:20:30;;;;;;;8.43;7.35;;;10.90;87.90;;;;;;4984147;28;20026;-66
2021/12/13 13:22:59;;;;;;;8.10;7.30;;;10.90;87.90;;;;;;4990983;28;20030;-67
2021/12/13 13:25:38;;;;;;;10.68;7.45;;;10.90;87.90;;;;;;4987420;28;20019;-66
2021/12/13 13:28:28;;;;;;;9.38;7.30;;;10.90;87.50;;;;;;4981954;28;20042;-68